Time;durP1;ratioP1;P1;durP2;ratioP2;P2;SDS_P1;SDS_P2;PMS_P1;PMS_P2;Temp;Humidity;BMP_temperature;BMP_pressure;BME280_temperature;BME280_humidity;BME280_pressure;Samples;Min_cycle;Max_cycle;Signal;HPM_P1;HPM_P2
2022/10/07 00:01:34;;;;;;;10.80;3.53;;;9.80;99.90;;;;;;5064432;28;20475;-50
2022/10/07 00:04:00;;;;;;;7.80;4.18;;;9.80;99.90;;;;;;5059420;28;20104;-49
2022/10/07 00:06:26;;;;;;;8.82;4.07;;;9.80;99.90;;;;;;5066326;28;20441;-50
2022/10/07 00:08:52;;;;;;;12.20;4.20;;;9.70;99.90;;;;;;5061714;28;20055;-52
2022/10/07 00:11:24;;;;;;;11.88;3.83;;;9.80;99.90;;;;;;5065828;28;20044;-49
2022/10/07 00:13:53;;;;;;;8.65;4.18;;;9.70;99.90;;;;;;5064152;28;20087;-50
2022/10/07 00:16:24;;;;;;;10.40;3.75;;;9.70;99.90;;;;;;5065790;28;20080;-53
2022/10/07 00:18:51;;;;;;;11.80;4.68;;;9.80;99.90;;;;;;5067859;28;20542;-51
2022/10/07 00:21:18;;;;;;;8.90;3.77;;;9.70;99.90;;;;;;5066904;28;20479;-50
2022/10/07 00:23:45;;;;;;;9.67;4.10;;;9.80;99.90;;;;;;5063909;28;20295;-51
2022/10/07 00:26:14;;;;;;;8.07;4.00;;;9.80;99.90;;;;;;5062501;28;20040;-51
2022/10/07 00:28:40;;;;;;;7.60;3.95;;;9.80;99.90;;;;;;5062577;28;20390;-53
2022/10/07 00:31:08;;;;;;;9.45;4.03;;;9.80;99.90;;;;;;5063189;28;20399;-52
2022/10/07 00:33:37;;;;;;;9.73;4.03;;;9.70;99.90;;;;;;5064394;28;20041;-51
2022/10/07 00:36:19;;;;;;;10.98;3.65;;;9.70;99.90;;;;;;5059245;28;20258;-47
2022/10/07 00:38:57;;;;;;;11.77;4.20;;;9.80;99.90;;;;;;5061143;28;20051;-51
2022/10/07 00:41:29;;;;;;;10.35;3.72;;;9.70;99.90;;;;;;5058264;28;20036;-50
2022/10/07 00:43:55;;;;;;;11.02;4.10;;;9.70;99.90;;;;;;5061803;28;20040;-53
2022/10/07 00:46:31;;;;;;;9.43;4.53;;;9.70;99.90;;;;;;5059148;28;20153;-52
2022/10/07 00:49:05;;;;;;;14.35;4.60;;;9.60;99.90;;;;;;5062025;28;20052;-50
2022/10/07 00:51:34;;;;;;;13.52;4.50;;;9.60;99.90;;;;;;5062158;28;20049;-48
2022/10/07 00:54:03;;;;;;;13.40;4.30;;;9.60;99.90;;;;;;5062360;28;20120;-50
2022/10/07 00:56:30;;;;;;;10.73;4.18;;;9.50;99.90;;;;;;5066104;28;20040;-53
2022/10/07 00:58:58;;;;;;;14.18;4.25;;;9.50;99.90;;;;;;5062480;28;20127;-48
2022/10/07 01:01:24;;;;;;;7.80;4.40;;;9.60;99.90;;;;;;5058983;28;20037;-50
2022/10/07 01:03:50;;;;;;;10.68;4.40;;;9.50;99.90;;;;;;5066336;28;20040;-49
2022/10/07 01:06:16;;;;;;;12.15;4.22;;;9.50;99.90;;;;;;5062810;28;20364;-48
2022/10/07 01:08:45;;;;;;;11.38;4.22;;;9.50;99.90;;;;;;5063932;28;20039;-51
2022/10/07 01:11:38;;;;;;;9.80;4.07;;;9.50;99.90;;;;;;5059926;28;21019;-49
2022/10/07 01:14:15;;;;;;;7.47;3.85;;;9.40;99.90;;;;;;5061627;28;20055;-52
2022/10/07 01:16:56;;;;;;;9.20;4.30;;;9.50;99.90;;;;;;5059389;28;20190;-52
2022/10/07 01:19:39;;;;;;;9.40;3.90;;;9.50;99.90;;;;;;5060872;28;20079;-49
2022/10/07 01:22:28;;;;;;;13.57;4.18;;;9.50;99.90;;;;;;5065853;28;20434;-50
2022/10/07 01:25:32;;;;;;;11.48;4.47;;;9.40;99.90;;;;;;5061538;28;20185;-51
2022/10/07 01:28:06;;;;;;;11.23;3.67;;;9.40;99.90;;;;;;5055378;28;20078;-48
2022/10/07 01:30:35;;;;;;;8.57;3.83;;;9.40;99.90;;;;;;5044024;28;20479;-49
2022/10/07 01:33:04;;;;;;;13.20;4.10;;;9.30;99.90;;;;;;5056409;28;20194;-49
2022/10/07 01:35:34;;;;;;;12.18;3.85;;;9.30;99.90;;;;;;5060113;28;20098;-48
2022/10/07 01:38:04;;;;;;;9.50;4.25;;;9.30;99.90;;;;;;5060271;28;20124;-52
2022/10/07 01:40:40;;;;;;;9.38;4.15;;;9.50;99.90;;;;;;5059020;28;20048;-50
2022/10/07 01:43:06;;;;;;;14.38;4.75;;;9.40;99.90;;;;;;5061281;28;20136;-52
2022/10/07 01:45:36;;;;;;;13.43;4.07;;;9.40;99.90;;;;;;5057714;28;20049;-50
2022/10/07 01:48:02;;;;;;;9.05;4.00;;;9.20;99.90;;;;;;5059802;28;20040;-52
2022/10/07 01:50:29;;;;;;;12.75;4.20;;;;;;;;;;5059250;28;20040;-48
2022/10/07 01:53:27;;;;;;;11.48;4.68;;;9.20;99.90;;;;;;5058868;28;20056;-54
2022/10/07 01:56:17;;;;;;;13.95;4.35;;;9.10;99.90;;;;;;5040285;28;20041;-52
2022/10/07 01:58:44;;;;;;;13.95;4.32;;;9.10;99.90;;;;;;5055213;28;20059;-53
2022/10/07 02:01:18;;;;;;;7.85;3.92;;;9.10;99.90;;;;;;5059802;28;20139;-52
2022/10/07 02:04:02;;;;;;;11.15;3.65;;;9.10;99.90;;;;;;5059383;28;20048;-49
2022/10/07 02:07:18;;;;;;;9.27;3.80;;;9.10;99.90;;;;;;5061999;28;20044;-48
2022/10/07 02:10:11;;;;;;;12.73;4.30;;;9.10;99.90;;;;;;5065391;28;20059;-49
2022/10/07 02:12:42;;;;;;;9.32;3.72;;;9.10;99.90;;;;;;5064141;28;20127;-49
2022/10/07 02:15:18;;;;;;;13.45;4.72;;;9.10;99.90;;;;;;5062755;28;20910;-52
2022/10/07 02:17:56;;;;;;;13.63;4.15;;;9.10;99.90;;;;;;5063550;28;20048;-48
2022/10/07 02:20:25;;;;;;;;;;;9.10;99.90;;;;;;5063579;28;20386;-48
2022/10/07 02:22:53;;;;;;;10.13;4.22;;;9.00;99.90;;;;;;5061976;28;19977;-49
2022/10/07 02:25:21;;;;;;;10.18;4.10;;;9.10;99.90;;;;;;5060296;28;20037;-49
2022/10/07 02:27:50;;;;;;;14.10;4.00;;;9.10;99.90;;;;;;5062495;28;20045;-49
2022/10/07 02:30:19;;;;;;;13.68;5.07;;;9.10;99.90;;;;;;5062373;28;20410;-48
2022/10/07 02:32:50;;;;;;;13.77;4.32;;;9.10;99.90;;;;;;5060260;28;20028;-48
2022/10/07 02:35:27;;;;;;;10.88;4.53;;;9.10;99.90;;;;;;5061717;28;20036;-50
2022/10/07 02:37:56;;;;;;;12.73;5.10;;;9.10;99.90;;;;;;5063421;28;20130;-48
2022/10/07 02:40:26;;;;;;;12.70;4.97;;;9.10;99.90;;;;;;5066375;28;20036;-50
2022/10/07 02:42:59;;;;;;;11.45;4.00;;;9.20;99.90;;;;;;5056849;28;20115;-48
2022/10/07 02:45:56;;;;;;;14.55;4.38;;;9.20;99.90;;;;;;5062268;28;20052;-52
2022/10/07 02:48:36;;;;;;;15.48;5.22;;;9.20;99.90;;;;;;5058390;28;20063;-48
2022/10/07 02:51:06;;;;;;;14.80;5.00;;;9.20;99.90;;;;;;5060186;28;20048;-50
2022/10/07 02:53:33;;;;;;;11.50;4.05;;;9.40;99.90;;;;;;5061427;28;20159;-51
2022/10/07 02:56:01;;;;;;;12.98;4.03;;;9.30;99.90;;;;;;5062955;28;20059;-50
2022/10/07 02:58:27;;;;;;;16.55;4.50;;;9.40;99.90;;;;;;5060518;28;20052;-51
2022/10/07 03:00:57;;;;;;;16.88;5.22;;;9.30;99.90;;;;;;5064242;28;20033;-51
2022/10/07 03:03:24;;;;;;;16.63;4.47;;;9.30;99.90;;;;;;5063443;28;20048;-52
2022/10/07 03:05:50;;;;;;;11.70;4.32;;;9.10;99.90;;;;;;5076096;28;20044;-52
2022/10/07 03:08:16;;;;;;;13.13;4.85;;;9.20;99.90;;;;;;5064207;28;20040;-55
2022/10/07 03:10:42;;;;;;;16.48;4.95;;;9.30;99.90;;;;;;5067623;28;20075;-50
2022/10/07 03:13:08;;;;;;;11.75;5.28;;;9.30;99.90;;;;;;5064928;28;20457;-48
2022/10/07 03:15:36;;;;;;;12.48;4.93;;;9.20;99.90;;;;;;5067583;28;20118;-54
2022/10/07 03:18:03;;;;;;;15.10;4.13;;;9.20;99.90;;;;;;5062829;28;20063;-50
2022/10/07 03:20:31;;;;;;;10.02;4.55;;;9.20;99.90;;;;;;5060259;28;20524;-50
2022/10/07 03:22:58;;;;;;;16.38;5.05;;;9.20;99.90;;;;;;5065029;28;20694;-50
2022/10/07 03:25:25;;;;;;;11.85;4.95;;;9.20;99.90;;;;;;5063624;28;20048;-52
2022/10/07 03:27:53;;;;;;;16.40;5.07;;;9.20;99.90;;;;;;5062678;28;20513;-50
2022/10/07 03:30:21;;;;;;;15.30;5.40;;;9.20;99.90;;;;;;5067292;28;20032;-48
2022/10/07 03:32:48;;;;;;;15.57;5.25;;;9.10;99.90;;;;;;5062892;28;20567;-52
2022/10/07 03:35:14;;;;;;;15.30;4.82;;;9.10;99.90;;;;;;5064089;28;20094;-51
2022/10/07 03:37:40;;;;;;;15.40;5.07;;;9.20;99.90;;;;;;5066322;28;20044;-50
2022/10/07 03:40:07;;;;;;;13.68;4.63;;;9.10;99.90;;;;;;5065129;28;20043;-51
2022/10/07 03:42:32;;;;;;;14.05;4.30;;;9.10;99.90;;;;;;5062376;28;20044;-52
2022/10/07 03:44:58;;;;;;;13.40;4.53;;;9.10;99.90;;;;;;5061670;28;20041;-50
2022/10/07 03:47:26;;;;;;;14.75;4.68;;;9.10;99.90;;;;;;5065835;28;20059;-52
2022/10/07 03:49:53;;;;;;;16.60;5.57;;;9.10;99.90;;;;;;5064893;28;20844;-50
2022/10/07 03:52:19;;;;;;;13.65;5.00;;;9.10;99.90;;;;;;5067143;28;20120;-50
2022/10/07 03:54:44;;;;;;;13.63;4.93;;;9.10;99.90;;;;;;5061834;28;20449;-49
2022/10/07 03:59:54;;;;;;;14.60;4.82;;;9.10;99.90;;;;;;5066703;28;20041;-51
2022/10/07 04:02:22;;;;;;;13.98;4.38;;;9.10;99.90;;;;;;5065554;28;20382;-51
2022/10/07 04:04:49;;;;;;;15.25;4.78;;;9.10;99.90;;;;;;5065421;28;20902;-52
2022/10/07 04:07:15;;;;;;;12.57;4.38;;;9.10;99.90;;;;;;5066685;28;20530;-51
2022/10/07 04:09:40;;;;;;;16.45;4.72;;;9.10;99.90;;;;;;5066447;28;20040;-50
2022/10/07 04:12:06;;;;;;;20.98;5.25;;;9.10;99.90;;;;;;5067714;28;20036;-52
2022/10/07 04:14:31;;;;;;;16.40;5.13;;;9.10;99.90;;;;;;5061056;28;20133;-50
2022/10/07 04:16:57;;;;;;;17.38;4.90;;;9.10;99.90;;;;;;5060831;28;20041;-48
2022/10/07 04:19:22;;;;;;;16.13;5.32;;;9.10;99.90;;;;;;5062019;28;20048;-50
2022/10/07 04:21:48;;;;;;;14.90;4.35;;;9.10;99.90;;;;;;5064702;28;20062;-52
2022/10/07 04:24:13;;;;;;;20.20;5.38;;;9.00;99.90;;;;;;5065415;28;20036;-49
2022/10/07 04:26:39;;;;;;;14.40;4.70;;;9.10;99.90;;;;;;5063687;28;20040;-50
2022/10/07 04:29:05;;;;;;;19.98;5.30;;;9.00;99.90;;;;;;5063230;28;20100;-50
2022/10/07 04:31:31;;;;;;;18.10;5.63;;;9.00;99.90;;;;;;5060897;28;20052;-48
2022/10/07 04:33:56;;;;;;;14.77;4.93;;;9.00;99.90;;;;;;5066443;28;20040;-48
2022/10/07 04:36:23;;;;;;;14.93;4.80;;;8.90;99.90;;;;;;5064421;28;20036;-48
2022/10/07 04:38:49;;;;;;;15.70;4.80;;;8.90;99.90;;;;;;5067463;28;20044;-51
2022/10/07 04:41:15;;;;;;;17.73;5.30;;;8.90;99.90;;;;;;5062465;28;20551;-53
2022/10/07 04:43:40;;;;;;;17.70;5.13;;;8.90;99.90;;;;;;5062973;28;20099;-52
2022/10/07 04:46:12;;;;;;;10.13;4.90;;;8.90;99.90;;;;;;5068961;28;20041;-48
2022/10/07 04:48:38;;;;;;;18.52;5.45;;;8.90;99.90;;;;;;5063463;28;20123;-50
2022/10/07 04:51:06;;;;;;;16.13;5.38;;;8.80;99.90;;;;;;5063554;28;20127;-49
2022/10/07 04:53:32;;;;;;;13.98;5.05;;;8.80;99.90;;;;;;5065496;28;20402;-47
2022/10/07 04:55:59;;;;;;;17.70;5.43;;;8.80;99.90;;;;;;5067487;28;20039;-48
2022/10/07 04:58:26;;;;;;;15.60;5.43;;;8.80;99.90;;;;;;5064335;28;20536;-48
2022/10/07 05:00:53;;;;;;;15.65;5.10;;;8.80;99.90;;;;;;5064821;28;20057;-51
2022/10/07 05:03:20;;;;;;;17.50;5.70;;;8.70;99.90;;;;;;5061176;28;20052;-47
2022/10/07 05:05:49;;;;;;;23.87;5.83;;;8.70;99.90;;;;;;5061618;28;20368;-48
2022/10/07 05:08:17;;;;;;;14.93;5.47;;;8.70;99.90;;;;;;5057235;28;20056;-52
2022/10/07 05:10:43;;;;;;;13.20;5.15;;;8.70;99.90;;;;;;5059780;28;20043;-50
2022/10/07 05:13:12;;;;;;;19.13;5.63;;;8.70;99.90;;;;;;5056798;28;20041;-49
2022/10/07 05:15:48;;;;;;;15.48;5.25;;;8.70;99.90;;;;;;5061315;28;20041;-54
2022/10/07 05:18:14;;;;;;;21.13;6.20;;;8.70;99.90;;;;;;5059899;28;20048;-53
2022/10/07 05:20:42;;;;;;;17.35;5.32;;;8.70;99.90;;;;;;5058850;28;20043;-53
2022/10/07 05:23:08;;;;;;;15.18;4.85;;;8.70;99.90;;;;;;5058788;28;20045;-53
2022/10/07 05:25:33;;;;;;;16.15;5.25;;;8.70;99.90;;;;;;5063893;28;20444;-51
2022/10/07 05:27:59;;;;;;;13.57;5.95;;;8.70;99.90;;;;;;5063763;28;20044;-53
2022/10/07 05:30:24;;;;;;;18.92;5.65;;;8.60;99.90;;;;;;5061732;28;20032;-53
2022/10/07 05:32:50;;;;;;;17.48;5.25;;;8.70;99.90;;;;;;5061512;28;20433;-48
2022/10/07 05:35:16;;;;;;;21.92;5.22;;;8.70;99.90;;;;;;5056400;28;20049;-54
2022/10/07 05:37:41;;;;;;;13.27;5.47;;;8.70;99.90;;;;;;5060104;28;20490;-53
2022/10/07 05:40:08;;;;;;;21.70;5.47;;;8.70;99.90;;;;;;5059787;28;20119;-50
2022/10/07 05:42:34;;;;;;;16.27;5.97;;;8.70;99.90;;;;;;5059758;28;20041;-53
2022/10/07 05:44:59;;;;;;;15.68;5.30;;;8.70;99.90;;;;;;5057276;28;20036;-50
2022/10/07 05:47:25;;;;;;;17.00;5.25;;;8.70;99.90;;;;;;5058204;28;20499;-51
2022/10/07 05:49:53;;;;;;;15.45;5.40;;;8.70;99.90;;;;;;5057769;28;20078;-51
2022/10/07 05:52:20;;;;;;;16.08;5.28;;;8.70;99.90;;;;;;5058364;28;20127;-54
2022/10/07 05:54:45;;;;;;;16.48;5.30;;;8.80;99.90;;;;;;5056653;28;20118;-52
2022/10/07 05:57:11;;;;;;;18.15;5.80;;;8.70;99.90;;;;;;5059578;28;20074;-53
2022/10/07 05:59:36;;;;;;;13.95;4.63;;;8.70;99.90;;;;;;5054478;28;20032;-48
2022/10/07 06:02:02;;;;;;;19.05;5.43;;;8.80;99.90;;;;;;5058759;28;20494;-52
2022/10/07 06:04:28;;;;;;;18.30;5.38;;;8.80;99.90;;;;;;5059816;28;20048;-49
2022/10/07 06:06:53;;;;;;;13.30;4.93;;;8.80;99.90;;;;;;5061845;28;20036;-52
2022/10/07 06:14:48;;;;;;;17.85;5.55;;;8.80;99.90;;;;;;5056384;28;20053;-53
2022/10/07 06:17:14;;;;;;;19.17;4.90;;;8.90;99.90;;;;;;5063827;28;20045;-47
2022/10/07 06:19:39;;;;;;;21.90;5.93;;;8.90;99.90;;;;;;5060172;28;20041;-49
2022/10/07 06:22:05;;;;;;;21.42;5.22;;;8.90;99.90;;;;;;5062322;28;20105;-49
2022/10/07 06:24:32;;;;;;;18.20;5.70;;;9.00;99.90;;;;;;5058213;28;20036;-49
2022/10/07 06:26:58;;;;;;;19.75;5.38;;;9.00;99.90;;;;;;5064084;28;20052;-48
2022/10/07 06:29:24;;;;;;;16.95;5.40;;;9.00;99.90;;;;;;5062780;28;20040;-50
2022/10/07 06:31:49;;;;;;;16.40;5.30;;;9.10;99.90;;;;;;5065714;28;20036;-48
2022/10/07 06:34:15;;;;;;;14.27;4.95;;;9.10;99.90;;;;;;5060585;28;20040;-51
2022/10/07 06:36:41;;;;;;;15.82;5.38;;;9.20;99.90;;;;;;5060032;28;20036;-55
2022/10/07 06:39:07;;;;;;;21.67;5.70;;;9.30;99.90;;;;;;5063290;28;20390;-51
2022/10/07 06:41:32;;;;;;;15.65;5.28;;;9.60;99.90;;;;;;5065096;28;20110;-51
2022/10/07 06:43:59;;;;;;;14.55;4.72;;;10.40;99.90;;;;;;5055473;28;20029;-55
2022/10/07 06:46:25;;;;;;;16.33;5.40;;;10.40;99.90;;;;;;5064885;28;20061;-49
2022/10/07 06:48:51;;;;;;;17.17;5.05;;;10.40;99.90;;;;;;5063197;28;20055;-51
2022/10/07 06:51:18;;;;;;;17.17;5.10;;;10.40;99.90;;;;;;5062665;28;20044;-53
2022/10/07 06:53:45;;;;;;;16.95;5.00;;;10.40;99.90;;;;;;5067793;28;20037;-50
2022/10/07 06:56:13;;;;;;;17.20;4.90;;;10.40;99.90;;;;;;5062771;28;20041;-51
2022/10/07 06:58:39;;;;;;;13.18;4.70;;;10.40;99.90;;;;;;5066423;28;20063;-47
2022/10/07 07:01:05;;;;;;;16.92;4.97;;;10.40;99.90;;;;;;5062529;28;20097;-50
2022/10/07 07:03:31;;;;;;;17.73;5.03;;;10.50;99.90;;;;;;5062981;28;20906;-54
2022/10/07 07:05:57;;;;;;;18.65;4.90;;;10.50;99.90;;;;;;5059083;28;20145;-52
2022/10/07 07:08:30;;;;;;;14.52;4.82;;;10.70;99.90;;;;;;5057350;28;20064;-49
2022/10/07 07:11:03;;;;;;;17.38;5.03;;;10.90;99.90;;;;;;5061402;28;20040;-49
2022/10/07 07:13:28;;;;;;;21.25;4.88;;;10.90;99.90;;;;;;5064346;28;20366;-51
2022/10/07 07:15:56;;;;;;;19.15;4.18;;;10.90;99.90;;;;;;5059572;28;20474;-53
2022/10/07 07:18:22;;;;;;;13.18;3.85;;;11.00;99.90;;;;;;5060828;28;20052;-49
2022/10/07 07:20:47;;;;;;;15.27;5.28;;;11.10;99.90;;;;;;5060512;28;20037;-49
2022/10/07 07:23:13;;;;;;;11.70;4.18;;;11.10;99.90;;;;;;5059393;28;20048;-51
2022/10/07 07:25:44;;;;;;;13.20;4.60;;;11.20;99.90;;;;;;5060804;28;20095;-49
2022/10/07 07:28:11;;;;;;;13.90;4.40;;;11.40;99.90;;;;;;5055464;28;20087;-49
2022/10/07 07:30:38;;;;;;;12.77;3.90;;;11.40;99.90;;;;;;5062596;28;20090;-49
2022/10/07 07:33:04;;;;;;;12.77;4.13;;;11.50;99.90;;;;;;5064350;28;20110;-49
2022/10/07 07:35:31;;;;;;;16.67;4.35;;;11.70;99.90;;;;;;5065718;28;20478;-51
2022/10/07 07:37:58;;;;;;;16.08;3.90;;;12.10;99.90;;;;;;5064353;28;20080;-53
2022/10/07 07:40:25;;;;;;;17.23;4.83;;;12.10;99.90;;;;;;5061143;28;20068;-50
2022/10/07 07:42:54;;;;;;;14.88;4.03;;;12.40;99.90;;;;;;5067067;28;20053;-52
2022/10/07 07:45:20;;;;;;;12.45;3.92;;;12.50;99.90;;;;;;5063210;28;20467;-52
2022/10/07 07:47:48;;;;;;;13.63;4.10;;;12.60;99.90;;;;;;5070022;28;20139;-51
2022/10/07 07:50:19;;;;;;;10.20;4.13;;;12.60;99.90;;;;;;5063317;28;20044;-54
2022/10/07 07:52:45;;;;;;;15.70;4.32;;;12.60;99.90;;;;;;5063136;28;20098;-53
2022/10/07 07:55:10;;;;;;;18.30;4.18;;;12.50;99.90;;;;;;5060213;28;20422;-56
2022/10/07 07:57:36;;;;;;;15.70;4.05;;;12.50;99.90;;;;;;5063890;28;20033;-50
2022/10/07 08:00:04;;;;;;;13.10;4.22;;;12.50;99.90;;;;;;5062158;28;20479;-51
2022/10/07 08:02:30;;;;;;;16.50;4.13;;;12.50;99.90;;;;;;5062971;28;20064;-52
2022/10/07 08:04:56;;;;;;;14.75;3.95;;;12.60;99.90;;;;;;5056284;28;20037;-53
2022/10/07 08:07:21;;;;;;;13.80;3.95;;;12.60;99.90;;;;;;5058125;28;20037;-50
2022/10/07 08:09:47;;;;;;;15.20;4.25;;;12.60;99.90;;;;;;5059123;28;20083;-52
2022/10/07 08:12:13;;;;;;;13.75;4.57;;;12.70;99.90;;;;;;5062808;28;20040;-50
2022/10/07 08:14:39;;;;;;;11.85;3.58;;;12.80;99.90;;;;;;5060538;28;20053;-55
2022/10/07 08:17:05;;;;;;;12.60;3.88;;;12.90;99.90;;;;;;5064237;28;20053;-51
2022/10/07 08:19:31;;;;;;;14.52;3.65;;;13.10;99.90;;;;;;5064813;28;20488;-52
2022/10/07 08:21:57;;;;;;;15.30;3.80;;;13.30;99.90;;;;;;5070480;28;20032;-49
2022/10/07 08:24:24;;;;;;;17.30;4.30;;;13.40;99.90;;;;;;5064935;28;20033;-51
2022/10/07 08:26:52;;;;;;;13.02;3.83;;;13.50;99.90;;;;;;5060169;28;20040;-51
2022/10/07 08:29:19;;;;;;;14.20;3.50;;;13.60;99.90;;;;;;5062943;28;20052;-50
2022/10/07 08:31:47;;;;;;;13.73;3.83;;;13.50;99.90;;;;;;5060000;28;20094;-51
2022/10/07 08:34:13;;;;;;;9.57;3.15;;;13.40;99.90;;;;;;5066298;28;20072;-52
2022/10/07 08:36:39;;;;;;;13.80;3.70;;;13.40;99.90;;;;;;5064404;28;20067;-49
2022/10/07 08:39:06;;;;;;;12.15;3.80;;;13.40;99.90;;;;;;5057391;28;20512;-53
2022/10/07 08:41:52;;;;;;;16.35;4.30;;;13.40;99.90;;;;;;5060392;28;20040;-50
2022/10/07 08:44:32;;;;;;;15.98;4.47;;;13.40;99.90;;;;;;5059344;28;20090;-54
2022/10/07 08:47:16;;;;;;;12.77;4.20;;;13.70;99.90;;;;;;5058424;28;20501;-56
2022/10/07 08:49:53;;;;;;;17.25;3.78;;;13.60;99.90;;;;;;5064593;28;20049;-55
2022/10/07 08:52:37;;;;;;;13.73;3.57;;;13.80;99.90;;;;;;5057770;28;20094;-50
2022/10/07 08:55:28;;;;;;;13.20;4.07;;;13.70;99.90;;;;;;5065410;28;20124;-50
2022/10/07 08:58:25;;;;;;;14.68;4.22;;;13.50;99.90;;;;;;5064699;28;20098;-51
2022/10/07 09:01:06;;;;;;;12.55;3.45;;;13.50;99.90;;;;;;5067231;28;20036;-51
2022/10/07 09:03:37;;;;;;;14.68;3.65;;;13.70;99.90;;;;;;5055508;28;20051;-50
2022/10/07 09:06:12;;;;;;;11.48;3.10;;;13.80;99.90;;;;;;5058417;28;20041;-55
2022/10/07 09:08:42;;;;;;;14.13;3.30;;;13.90;99.90;;;;;;5063771;28;20546;-53
2022/10/07 09:11:15;;;;;;;10.13;3.33;;;13.80;99.90;;;;;;5060418;28;20044;-54
2022/10/07 09:14:36;;;;;;;12.88;3.47;;;14.20;99.90;;;;;;5062418;28;20044;-53
2022/10/07 09:17:22;;;;;;;11.63;2.80;;;14.20;99.90;;;;;;5080017;28;20040;-54
2022/10/07 09:19:54;;;;;;;11.52;3.13;;;14.30;99.90;;;;;;5074333;28;20117;-54
2022/10/07 09:22:23;;;;;;;16.92;3.47;;;14.40;99.90;;;;;;5075407;28;20067;-55
2022/10/07 09:24:56;;;;;;;12.32;3.35;;;14.60;99.90;;;;;;5080291;28;20044;-51
2022/10/07 09:27:22;;;;;;;12.25;3.50;;;14.70;99.90;;;;;;5083943;28;20052;-53
2022/10/07 09:29:50;;;;;;;16.00;3.58;;;14.80;99.90;;;;;;5080141;28;20044;-54
2022/10/07 09:32:17;;;;;;;12.50;3.20;;;14.90;99.90;;;;;;5076996;28;20044;-53
2022/10/07 09:34:43;;;;;;;13.90;2.70;;;15.00;99.90;;;;;;5076513;28;20572;-53
2022/10/07 09:37:19;;;;;;;11.10;3.15;;;15.20;99.90;;;;;;5088772;28;20103;-53
2022/10/07 09:39:50;;;;;;;12.27;2.88;;;15.30;99.90;;;;;;5080871;28;20044;-52
2022/10/07 09:42:32;;;;;;;10.75;3.30;;;15.30;99.90;;;;;;5082069;28;20413;-49
2022/10/07 09:45:03;;;;;;;10.88;3.08;;;15.50;99.90;;;;;;5086100;28;20044;-53
2022/10/07 09:47:39;;;;;;;12.02;3.60;;;15.60;99.90;;;;;;5077247;28;20068;-53
2022/10/07 09:50:05;;;;;;;15.88;3.33;;;15.70;99.90;;;;;;5065779;28;20120;-51
2022/10/07 09:52:31;;;;;;;12.43;2.83;;;15.80;99.90;;;;;;5068591;28;20555;-52
2022/10/07 09:55:36;;;;;;;14.63;3.25;;;15.80;99.90;;;;;;5062332;28;20136;-50
2022/10/07 09:58:05;;;;;;;9.77;2.67;;;16.00;99.90;;;;;;5053764;28;20563;-52
2022/10/07 10:00:39;;;;;;;12.27;2.50;;;16.10;99.90;;;;;;5063015;28;20040;-53
2022/10/07 10:03:08;;;;;;;18.50;3.40;;;16.20;99.90;;;;;;5063163;28;20033;-50
2022/10/07 10:05:48;;;;;;;11.85;2.30;;;16.10;99.90;;;;;;5056217;28;20048;-54
2022/10/07 10:08:17;;;;;;;12.15;2.95;;;16.20;99.90;;;;;;5065437;28;20448;-50
2022/10/07 10:11:18;;;;;;;13.38;3.25;;;16.20;99.90;;;;;;5069500;28;20044;-51
2022/10/07 10:13:49;;;;;;;12.10;3.38;;;16.40;99.90;;;;;;5067609;28;20047;-51
2022/10/07 10:16:24;;;;;;;9.05;2.72;;;16.50;99.90;;;;;;5066255;28;20417;-52
2022/10/07 10:18:53;;;;;;;11.98;2.72;;;16.60;99.90;;;;;;5069326;28;20047;-51
2022/10/07 10:21:27;;;;;;;10.63;2.50;;;16.70;99.90;;;;;;5065685;28;20040;-52
2022/10/07 10:23:56;;;;;;;12.23;2.95;;;16.80;99.90;;;;;;5066506;28;20048;-49
2022/10/07 10:26:43;;;;;;;11.40;2.75;;;16.90;99.90;;;;;;5064538;28;20566;-54
2022/10/07 10:29:31;;;;;;;12.68;2.45;;;16.90;99.90;;;;;;5064781;28;20458;-53
2022/10/07 10:32:27;;;;;;;13.10;2.78;;;16.90;99.90;;;;;;5063777;28;20040;-52
2022/10/07 10:35:06;;;;;;;11.18;2.60;;;17.10;99.90;;;;;;5066662;28;20036;-53
2022/10/07 10:37:51;;;;;;;9.82;2.95;;;17.10;99.90;;;;;;5064165;28;20040;-53
2022/10/07 10:40:39;;;;;;;11.32;2.42;;;17.10;99.90;;;;;;5071038;28;20079;-51
2022/10/07 10:43:20;;;;;;;10.00;2.70;;;17.20;99.90;;;;;;5061278;28;20041;-53
2022/10/07 10:45:52;;;;;;;10.90;3.05;;;17.30;99.90;;;;;;5063241;28;20060;-53
2022/10/07 10:48:38;;;;;;;11.00;2.70;;;17.40;99.90;;;;;;5060811;28;20059;-53
2022/10/07 10:51:23;;;;;;;13.93;3.10;;;17.40;99.90;;;;;;5064006;28;20056;-51
2022/10/07 10:54:12;;;;;;;8.98;2.63;;;17.50;99.90;;;;;;5059265;28;20521;-53
2022/10/07 10:56:47;;;;;;;11.52;3.28;;;17.60;99.90;;;;;;5060068;28;20059;-52
2022/10/07 10:59:40;;;;;;;11.90;2.92;;;17.50;99.90;;;;;;5066582;28;20155;-50
2022/10/07 11:02:35;;;;;;;13.88;3.13;;;17.60;99.90;;;;;;5055139;28;20498;-54
2022/10/07 11:05:32;;;;;;;12.90;2.47;;;17.60;99.90;;;;;;5071861;28;20476;-52
2022/10/07 11:08:01;;;;;;;;;;;17.70;99.90;;;;;;5060483;28;20083;-51
2022/10/07 11:10:48;;;;;;;9.60;2.55;;;17.80;99.90;;;;;;5071449;28;20271;-50
2022/10/07 11:13:37;;;;;;;12.27;2.72;;;18.00;99.90;;;;;;5071761;28;20041;-53
2022/10/07 11:16:21;;;;;;;13.38;3.13;;;17.90;99.90;;;;;;5071727;28;20045;-54
2022/10/07 11:19:00;;;;;;;11.38;2.38;;;17.80;99.90;;;;;;5070017;28;20051;-54
2022/10/07 11:21:40;;;;;;;12.32;3.13;;;17.70;99.90;;;;;;5070360;28;20047;-50
2022/10/07 11:24:27;;;;;;;13.82;2.65;;;17.60;99.90;;;;;;5067211;28;20102;-49
2022/10/07 11:26:59;;;;;;;12.55;2.72;;;17.70;99.90;;;;;;5074189;28;20124;-50
2022/10/07 11:29:35;;;;;;;13.88;3.13;;;17.70;99.90;;;;;;5075177;28;20039;-50
2022/10/07 11:32:11;;;;;;;9.40;2.72;;;17.90;99.90;;;;;;5074123;28;20040;-51
2022/10/07 11:34:48;;;;;;;11.38;2.78;;;17.80;99.90;;;;;;5073102;28;20094;-53
2022/10/07 11:37:23;;;;;;;12.60;2.92;;;17.90;99.90;;;;;;5056199;28;20380;-51
2022/10/07 11:39:52;;;;;;;12.48;3.40;;;17.90;99.90;;;;;;5069086;28;20090;-54
2022/10/07 11:42:25;;;;;;;10.95;2.47;;;18.00;99.90;;;;;;5070545;28;20466;-52
2022/10/07 11:45:03;;;;;;;13.43;2.63;;;17.90;99.90;;;;;;5066468;28;20398;-53
2022/10/07 11:47:39;;;;;;;11.68;2.40;;;17.90;99.90;;;;;;5071374;28;20120;-53
2022/10/07 11:50:13;;;;;;;11.32;2.55;;;17.80;99.90;;;;;;5068919;28;20120;-54
2022/10/07 11:52:45;;;;;;;10.00;2.40;;;17.90;99.90;;;;;;5064648;28;20709;-55
2022/10/07 11:55:21;;;;;;;11.50;2.78;;;17.90;99.90;;;;;;5068010;28;20110;-54
2022/10/07 11:57:54;;;;;;;12.23;2.47;;;17.90;99.90;;;;;;5069622;28;20059;-54
2022/10/07 12:00:32;;;;;;;10.88;3.00;;;18.00;99.90;;;;;;5066570;28;20036;-53
2022/10/07 12:03:30;;;;;;;12.18;2.70;;;18.10;99.90;;;;;;5066612;28;20044;-52
2022/10/07 12:06:05;;;;;;;13.18;2.70;;;18.20;99.90;;;;;;5061228;28;20097;-55
2022/10/07 12:08:37;;;;;;;9.80;2.38;;;18.30;99.90;;;;;;5064381;28;20036;-52
2022/10/07 12:11:11;;;;;;;13.27;2.88;;;18.40;99.90;;;;;;5067942;28;20036;-50
2022/10/07 12:13:51;;;;;;;9.05;2.50;;;18.50;99.90;;;;;;5069522;28;20049;-53
2022/10/07 12:16:23;;;;;;;9.95;2.78;;;18.50;99.90;;;;;;5069025;28;20052;-52
2022/10/07 12:19:06;;;;;;;8.52;2.28;;;18.60;99.90;;;;;;5068612;28;20044;-52
2022/10/07 12:22:03;;;;;;;11.50;2.60;;;18.70;99.90;;;;;;5068731;28;20041;-51
2022/10/07 12:24:36;;;;;;;9.55;2.40;;;18.70;99.90;;;;;;5063621;28;20072;-51
2022/10/07 12:27:06;;;;;;;9.93;2.05;;;18.80;99.90;;;;;;5064933;28;20486;-52
2022/10/07 12:29:44;;;;;;;9.80;2.42;;;19.00;99.90;;;;;;5062257;28;20045;-51
2022/10/07 12:32:51;;;;;;;8.80;2.47;;;19.10;99.90;;;;;;5067468;28;20056;-52
2022/10/07 12:35:28;;;;;;;11.10;2.58;;;19.10;99.90;;;;;;5049248;28;20442;-52
2022/10/07 12:38:16;;;;;;;9.88;2.15;;;19.00;99.90;;;;;;5041103;28;20041;-52
2022/10/07 12:40:49;;;;;;;8.43;2.38;;;19.10;99.90;;;;;;5037470;28;20060;-54
2022/10/07 12:43:20;;;;;;;7.57;2.00;;;19.10;99.90;;;;;;5043781;28;20045;-50
2022/10/07 12:45:46;;;;;;;8.88;2.05;;;19.00;99.90;;;;;;5047497;28;20055;-51
2022/10/07 12:48:19;;;;;;;9.48;2.33;;;19.00;99.90;;;;;;5048711;28;20045;-50
2022/10/07 12:50:48;;;;;;;10.98;2.30;;;19.00;99.90;;;;;;5033219;28;20096;-51
2022/10/07 12:53:15;;;;;;;12.65;2.03;;;18.90;99.90;;;;;;5033019;28;20050;-51
2022/10/07 12:55:47;;;;;;;9.88;2.65;;;18.80;99.90;;;;;;5042870;28;20048;-50
2022/10/07 13:01:42;;;;;;;9.95;2.40;;;18.80;99.90;;;;;;5045949;28;20077;-49
2022/10/07 13:04:19;;;;;;;;;;;18.90;99.90;;;;;;5045848;28;20469;-52
2022/10/07 13:07:28;;;;;;;9.27;2.00;;;19.00;99.90;;;;;;5043154;28;20477;-52
2022/10/07 13:10:33;;;;;;;9.85;2.08;;;19.10;99.90;;;;;;5042558;28;20650;-49
2022/10/07 13:13:06;;;;;;;9.65;1.95;;;19.20;99.90;;;;;;5059764;28;20044;-49
2022/10/07 13:15:40;;;;;;;8.45;1.75;;;19.20;99.90;;;;;;5069135;28;20102;-51
2022/10/07 13:18:27;;;;;;;7.88;1.90;;;19.20;99.90;;;;;;5070085;28;20036;-51
2022/10/07 13:21:04;;;;;;;9.20;1.67;;;19.10;99.90;;;;;;5067167;28;20036;-52
2022/10/07 13:23:31;;;;;;;7.57;2.20;;;19.00;99.90;;;;;;5069148;28;20078;-51